sensor_id;sensor_type;location;lat;lon;timestamp;temperature;humidity
21770;DHT22;11046;49.558;8.674;2024-02-23T00:02:21;8.00;99.90
21770;DHT22;11046;49.558;8.674;2024-02-23T00:05:22;8.00;99.90
21770;DHT22;11046;49.558;8.674;2024-02-23T00:08:23;8.00;99.90
21770;DHT22;11046;49.558;8.674;2024-02-23T00:11:23;8.00;99.90
21770;DHT22;11046;49.558;8.674;2024-02-23T00:14:24;8.00;99.90
21770;DHT22;11046;49.558;8.674;2024-02-23T00:17:25;8.00;99.90
21770;DHT22;11046;49.558;8.674;2024-02-23T00:20:25;8.00;99.90
21770;DHT22;11046;49.558;8.674;2024-02-23T00:23:26;8.00;99.90
21770;DHT22;11046;49.558;8.674;2024-02-23T00:26:26;7.90;99.90
21770;DHT22;11046;49.558;8.674;2024-02-23T00:29:29;7.80;99.90
21770;DHT22;11046;49.558;8.674;2024-02-23T00:32:29;7.60;99.90
21770;DHT22;11046;49.558;8.674;2024-02-23T00:35:30;7.50;99.90
21770;DHT22;11046;49.558;8.674;2024-02-23T00:38:31;7.50;99.90
21770;DHT22;11046;49.558;8.674;2024-02-23T00:41:31;7.40;99.90
21770;DHT22;11046;49.558;8.674;2024-02-23T00:44:32;7.40;99.90
21770;DHT22;11046;49.558;8.674;2024-02-23T00:47:32;7.30;99.90
21770;DHT22;11046;49.558;8.674;2024-02-23T00:50:35;7.30;99.90
21770;DHT22;11046;49.558;8.674;2024-02-23T00:53:36;7.20;99.90
21770;DHT22;11046;49.558;8.674;2024-02-23T00:56:36;7.10;99.90
21770;DHT22;11046;49.558;8.674;2024-02-23T00:59:37;7.10;99.90
21770;DHT22;11046;49.558;8.674;2024-02-23T01:02:38;7.10;99.90
21770;DHT22;11046;49.558;8.674;2024-02-23T01:05:39;7.10;99.90
21770;DHT22;11046;49.558;8.674;2024-02-23T01:08:40;7.10;99.90
21770;DHT22;11046;49.558;8.674;2024-02-23T01:11:40;7.10;99.90
21770;DHT22;11046;49.558;8.674;2024-02-23T01:14:41;7.00;99.90
21770;DHT22;11046;49.558;8.674;2024-02-23T01:17:41;7.00;99.90
21770;DHT22;11046;49.558;8.674;2024-02-23T01:20:42;6.90;99.90
21770;DHT22;11046;49.558;8.674;2024-02-23T01:23:43;6.80;99.90
21770;DHT22;11046;49.558;8.674;2024-02-23T01:26:43;6.70;99.90
21770;DHT22;11046;49.558;8.674;2024-02-23T01:29:44;6.70;99.90
21770;DHT22;11046;49.558;8.674;2024-02-23T01:32:45;6.80;99.90
21770;DHT22;11046;49.558;8.674;2024-02-23T01:35:46;6.70;99.90
21770;DHT22;11046;49.558;8.674;2024-02-23T01:38:47;6.70;99.90
21770;DHT22;11046;49.558;8.674;2024-02-23T01:41:48;6.70;99.90
21770;DHT22;11046;49.558;8.674;2024-02-23T01:44:48;6.80;99.90
21770;DHT22;11046;49.558;8.674;2024-02-23T01:47:49;6.90;99.90
21770;DHT22;11046;49.558;8.674;2024-02-23T01:50:50;6.90;99.90
21770;DHT22;11046;49.558;8.674;2024-02-23T01:53:51;6.90;99.90
21770;DHT22;11046;49.558;8.674;2024-02-23T01:56:52;6.80;99.90
21770;DHT22;11046;49.558;8.674;2024-02-23T01:59:53;6.60;99.90
21770;DHT22;11046;49.558;8.674;2024-02-23T02:02:55;6.30;99.90
21770;DHT22;11046;49.558;8.674;2024-02-23T02:05:57;6.20;99.90
21770;DHT22;11046;49.558;8.674;2024-02-23T02:09:01;6.10;99.90
21770;DHT22;11046;49.558;8.674;2024-02-23T02:12:02;6.00;99.90
21770;DHT22;11046;49.558;8.674;2024-02-23T02:15:04;5.80;99.90
21770;DHT22;11046;49.558;8.674;2024-02-23T02:18:05;5.70;99.90
21770;DHT22;11046;49.558;8.674;2024-02-23T02:21:05;5.60;99.90
21770;DHT22;11046;49.558;8.674;2024-02-23T02:24:06;5.60;99.90
21770;DHT22;11046;49.558;8.674;2024-02-23T02:27:07;5.60;99.90
21770;DHT22;11046;49.558;8.674;2024-02-23T02:30:08;5.60;99.90
21770;DHT22;11046;49.558;8.674;2024-02-23T02:33:09;5.60;99.90
21770;DHT22;11046;49.558;8.674;2024-02-23T02:36:09;5.70;99.90
21770;DHT22;11046;49.558;8.674;2024-02-23T02:39:11;5.70;99.90
21770;DHT22;11046;49.558;8.674;2024-02-23T02:45:28;5.80;99.90
21770;DHT22;11046;49.558;8.674;2024-02-23T02:48:29;5.80;99.90
21770;DHT22;11046;49.558;8.674;2024-02-23T02:51:30;5.90;99.90
21770;DHT22;11046;49.558;8.674;2024-02-23T02:54:30;5.90;99.90
21770;DHT22;11046;49.558;8.674;2024-02-23T02:57:31;5.90;99.90
21770;DHT22;11046;49.558;8.674;2024-02-23T03:00:31;5.90;99.90
21770;DHT22;11046;49.558;8.674;2024-02-23T03:03:32;5.90;99.90
21770;DHT22;11046;49.558;8.674;2024-02-23T03:06:33;6.00;99.90
21770;DHT22;11046;49.558;8.674;2024-02-23T03:09:33;6.00;99.90
21770;DHT22;11046;49.558;8.674;2024-02-23T03:12:34;6.00;99.90
21770;DHT22;11046;49.558;8.674;2024-02-23T03:15:34;5.90;99.90
21770;DHT22;11046;49.558;8.674;2024-02-23T03:18:35;5.90;99.90
21770;DHT22;11046;49.558;8.674;2024-02-23T03:21:36;6.00;99.90
21770;DHT22;11046;49.558;8.674;2024-02-23T03:24:37;5.90;99.90
21770;DHT22;11046;49.558;8.674;2024-02-23T03:27:38;5.90;99.90
21770;DHT22;11046;49.558;8.674;2024-02-23T03:30:38;6.00;99.90
21770;DHT22;11046;49.558;8.674;2024-02-23T03:33:39;5.90;99.90
21770;DHT22;11046;49.558;8.674;2024-02-23T03:36:40;5.90;99.90
21770;DHT22;11046;49.558;8.674;2024-02-23T03:39:41;5.90;99.90
21770;DHT22;11046;49.558;8.674;2024-02-23T03:42:41;6.00;99.90
21770;DHT22;11046;49.558;8.674;2024-02-23T03:45:42;5.90;99.90
21770;DHT22;11046;49.558;8.674;2024-02-23T03:48:43;5.90;99.90
21770;DHT22;11046;49.558;8.674;2024-02-23T03:51:43;5.90;99.90
21770;DHT22;11046;49.558;8.674;2024-02-23T03:54:44;5.90;99.90
21770;DHT22;11046;49.558;8.674;2024-02-23T03:57:45;6.00;99.90
21770;DHT22;11046;49.558;8.674;2024-02-23T04:00:45;6.00;99.90
21770;DHT22;11046;49.558;8.674;2024-02-23T04:03:46;6.00;99.90
21770;DHT22;11046;49.558;8.674;2024-02-23T04:06:46;6.00;99.90
21770;DHT22;11046;49.558;8.674;2024-02-23T04:09:47;6.00;99.90
21770;DHT22;11046;49.558;8.674;2024-02-23T04:12:52;6.00;99.90
21770;DHT22;11046;49.558;8.674;2024-02-23T04:15:53;6.00;99.90
21770;DHT22;11046;49.558;8.674;2024-02-23T04:18:54;5.90;99.90
21770;DHT22;11046;49.558;8.674;2024-02-23T04:21:56;5.90;99.90
21770;DHT22;11046;49.558;8.674;2024-02-23T04:24:57;5.80;99.90
21770;DHT22;11046;49.558;8.674;2024-02-23T04:27:57;5.80;99.90
21770;DHT22;11046;49.558;8.674;2024-02-23T04:30:58;5.80;99.90
21770;DHT22;11046;49.558;8.674;2024-02-23T04:33:59;5.70;99.90
21770;DHT22;11046;49.558;8.674;2024-02-23T04:36:59;5.80;99.90
21770;DHT22;11046;49.558;8.674;2024-02-23T04:40:00;5.90;99.90
21770;DHT22;11046;49.558;8.674;2024-02-23T04:43:00;6.00;99.90
21770;DHT22;11046;49.558;8.674;2024-02-23T04:46:01;6.00;99.90
21770;DHT22;11046;49.558;8.674;2024-02-23T04:49:02;6.00;99.90
21770;DHT22;11046;49.558;8.674;2024-02-23T04:52:04;6.00;99.90
21770;DHT22;11046;49.558;8.674;2024-02-23T04:55:05;6.10;99.90
21770;DHT22;11046;49.558;8.674;2024-02-23T04:58:06;6.20;99.90
21770;DHT22;11046;49.558;8.674;2024-02-23T05:01:07;6.10;99.90
21770;DHT22;11046;49.558;8.674;2024-02-23T05:04:07;6.00;99.90
21770;DHT22;11046;49.558;8.674;2024-02-23T05:07:08;6.00;99.90
21770;DHT22;11046;49.558;8.674;2024-02-23T05:10:09;6.00;99.90
21770;DHT22;11046;49.558;8.674;2024-02-23T05:13:09;5.90;99.90
21770;DHT22;11046;49.558;8.674;2024-02-23T05:16:10;5.90;99.90
21770;DHT22;11046;49.558;8.674;2024-02-23T05:19:11;5.90;99.90
21770;DHT22;11046;49.558;8.674;2024-02-23T05:22:11;5.80;99.90
21770;DHT22;11046;49.558;8.674;2024-02-23T05:25:12;5.80;99.90
21770;DHT22;11046;49.558;8.674;2024-02-23T05:28:13;5.80;99.90
21770;DHT22;11046;49.558;8.674;2024-02-23T05:31:13;5.70;99.90
21770;DHT22;11046;49.558;8.674;2024-02-23T05:34:14;5.70;99.90
21770;DHT22;11046;49.558;8.674;2024-02-23T05:37:15;5.70;99.90
21770;DHT22;11046;49.558;8.674;2024-02-23T05:40:16;5.60;99.90
21770;DHT22;11046;49.558;8.674;2024-02-23T05:43:16;5.70;99.90
21770;DHT22;11046;49.558;8.674;2024-02-23T05:46:17;5.70;99.90
21770;DHT22;11046;49.558;8.674;2024-02-23T05:49:18;5.70;99.90
21770;DHT22;11046;49.558;8.674;2024-02-23T05:52:19;5.70;99.90
21770;DHT22;11046;49.558;8.674;2024-02-23T05:55:19;5.70;99.90
21770;DHT22;11046;49.558;8.674;2024-02-23T05:58:20;5.70;99.90
21770;DHT22;11046;49.558;8.674;2024-02-23T06:04:37;5.60;99.90
21770;DHT22;11046;49.558;8.674;2024-02-23T06:07:41;5.60;99.90
21770;DHT22;11046;49.558;8.674;2024-02-23T06:10:42;5.70;99.90
21770;DHT22;11046;49.558;8.674;2024-02-23T06:13:43;5.60;99.90
21770;DHT22;11046;49.558;8.674;2024-02-23T06:16:44;5.70;99.90
21770;DHT22;11046;49.558;8.674;2024-02-23T06:19:45;5.70;99.90
21770;DHT22;11046;49.558;8.674;2024-02-23T06:22:45;5.70;99.90
21770;DHT22;11046;49.558;8.674;2024-02-23T06:25:46;5.60;99.90
21770;DHT22;11046;49.558;8.674;2024-02-23T06:28:46;5.70;99.90
21770;DHT22;11046;49.558;8.674;2024-02-23T06:31:49;5.60;99.90
21770;DHT22;11046;49.558;8.674;2024-02-23T06:34:50;5.60;99.90
21770;DHT22;11046;49.558;8.674;2024-02-23T06:37:50;5.60;99.90
21770;DHT22;11046;49.558;8.674;2024-02-23T06:40:51;5.60;99.90
21770;DHT22;11046;49.558;8.674;2024-02-23T06:43:52;5.60;99.90
21770;DHT22;11046;49.558;8.674;2024-02-23T06:46:53;5.60;99.90
21770;DHT22;11046;49.558;8.674;2024-02-23T06:49:54;5.50;99.90
21770;DHT22;11046;49.558;8.674;2024-02-23T06:52:54;5.50;99.90
21770;DHT22;11046;49.558;8.674;2024-02-23T06:55:55;5.50;99.90
21770;DHT22;11046;49.558;8.674;2024-02-23T06:58:56;5.50;99.90
21770;DHT22;11046;49.558;8.674;2024-02-23T07:01:56;5.50;99.90
21770;DHT22;11046;49.558;8.674;2024-02-23T07:04:57;5.50;99.90
21770;DHT22;11046;49.558;8.674;2024-02-23T07:07:59;5.40;99.90
21770;DHT22;11046;49.558;8.674;2024-02-23T07:10:59;5.40;99.90
21770;DHT22;11046;49.558;8.674;2024-02-23T07:14:00;5.40;99.90
21770;DHT22;11046;49.558;8.674;2024-02-23T07:17:01;5.50;99.90
21770;DHT22;11046;49.558;8.674;2024-02-23T07:20:03;5.50;99.90
21770;DHT22;11046;49.558;8.674;2024-02-23T07:23:06;5.40;99.90
21770;DHT22;11046;49.558;8.674;2024-02-23T07:26:08;5.40;99.90
21770;DHT22;11046;49.558;8.674;2024-02-23T07:29:08;5.40;99.90
21770;DHT22;11046;49.558;8.674;2024-02-23T07:32:09;5.40;99.90
21770;DHT22;11046;49.558;8.674;2024-02-23T07:35:10;5.40;99.90
21770;DHT22;11046;49.558;8.674;2024-02-23T07:38:11;5.40;99.90
21770;DHT22;11046;49.558;8.674;2024-02-23T07:41:12;5.40;99.90
21770;DHT22;11046;49.558;8.674;2024-02-23T07:44:13;5.40;99.90
21770;DHT22;11046;49.558;8.674;2024-02-23T07:47:14;5.40;99.90
21770;DHT22;11046;49.558;8.674;2024-02-23T07:50:15;5.40;99.90
21770;DHT22;11046;49.558;8.674;2024-02-23T07:53:16;5.40;99.90
21770;DHT22;11046;49.558;8.674;2024-02-23T07:56:16;5.50;99.90
21770;DHT22;11046;49.558;8.674;2024-02-23T07:59:17;5.60;99.90
21770;DHT22;11046;49.558;8.674;2024-02-23T08:02:18;5.70;99.90
21770;DHT22;11046;49.558;8.674;2024-02-23T08:05:19;6.10;99.90
21770;DHT22;11046;49.558;8.674;2024-02-23T08:08:19;6.40;99.90
21770;DHT22;11046;49.558;8.674;2024-02-23T08:11:20;6.60;99.90
21770;DHT22;11046;49.558;8.674;2024-02-23T08:14:20;6.90;99.90
21770;DHT22;11046;49.558;8.674;2024-02-23T08:17:21;7.00;99.90
21770;DHT22;11046;49.558;8.674;2024-02-23T08:20:22;7.00;99.90
21770;DHT22;11046;49.558;8.674;2024-02-23T08:23:23;7.00;99.90
21770;DHT22;11046;49.558;8.674;2024-02-23T08:26:24;7.00;99.90
21770;DHT22;11046;49.558;8.674;2024-02-23T08:29:26;7.10;99.90
21770;DHT22;11046;49.558;8.674;2024-02-23T08:32:27;7.20;99.90
21770;DHT22;11046;49.558;8.674;2024-02-23T08:35:28;7.20;99.70
21770;DHT22;11046;49.558;8.674;2024-02-23T08:38:28;7.20;99.80
21770;DHT22;11046;49.558;8.674;2024-02-23T08:41:29;7.30;99.70
21770;DHT22;11046;49.558;8.674;2024-02-23T08:44:29;7.30;99.60
21770;DHT22;11046;49.558;8.674;2024-02-23T08:47:30;7.40;99.60
21770;DHT22;11046;49.558;8.674;2024-02-23T08:50:33;7.60;99.50
21770;DHT22;11046;49.558;8.674;2024-02-23T08:53:34;7.70;99.60
21770;DHT22;11046;49.558;8.674;2024-02-23T08:56:38;8.00;99.50
21770;DHT22;11046;49.558;8.674;2024-02-23T08:59:43;8.10;98.90
21770;DHT22;11046;49.558;8.674;2024-02-23T09:02:44;8.10;98.80
21770;DHT22;11046;49.558;8.674;2024-02-23T09:05:44;8.10;98.90
21770;DHT22;11046;49.558;8.674;2024-02-23T09:08:47;8.20;98.90
21770;DHT22;11046;49.558;8.674;2024-02-23T09:11:49;8.60;98.80
21770;DHT22;11046;49.558;8.674;2024-02-23T09:14:50;8.80;98.40
21770;DHT22;11046;49.558;8.674;2024-02-23T09:17:50;8.90;98.00
21770;DHT22;11046;49.558;8.674;2024-02-23T09:20:51;9.10;98.10
21770;DHT22;11046;49.558;8.674;2024-02-23T09:23:52;9.30;97.90
21770;DHT22;11046;49.558;8.674;2024-02-23T09:26:52;9.70;98.00
21770;DHT22;11046;49.558;8.674;2024-02-23T09:29:53;10.10;97.60
21770;DHT22;11046;49.558;8.674;2024-02-23T09:32:54;10.50;97.20
21770;DHT22;11046;49.558;8.674;2024-02-23T09:35:55;10.70;96.80
21770;DHT22;11046;49.558;8.674;2024-02-23T09:38:55;10.80;96.40
21770;DHT22;11046;49.558;8.674;2024-02-23T09:41:56;11.00;96.10
21770;DHT22;11046;49.558;8.674;2024-02-23T09:44:58;11.20;95.40
21770;DHT22;11046;49.558;8.674;2024-02-23T09:48:00;11.40;94.50
21770;DHT22;11046;49.558;8.674;2024-02-23T09:51:05;11.40;94.50
21770;DHT22;11046;49.558;8.674;2024-02-23T09:54:06;11.50;94.10
21770;DHT22;11046;49.558;8.674;2024-02-23T09:57:08;11.50;93.80
21770;DHT22;11046;49.558;8.674;2024-02-23T10:00:10;11.40;93.70
21770;DHT22;11046;49.558;8.674;2024-02-23T10:03:14;11.20;93.70
21770;DHT22;11046;49.558;8.674;2024-02-23T10:06:14;10.80;93.80
21770;DHT22;11046;49.558;8.674;2024-02-23T10:09:15;10.70;94.00
21770;DHT22;11046;49.558;8.674;2024-02-23T10:12:16;10.40;93.90
21770;DHT22;11046;49.558;8.674;2024-02-23T10:15:16;10.50;94.50
21770;DHT22;11046;49.558;8.674;2024-02-23T10:18:17;10.70;94.50
21770;DHT22;11046;49.558;8.674;2024-02-23T10:21:18;10.50;94.10
21770;DHT22;11046;49.558;8.674;2024-02-23T10:24:19;10.40;94.20
21770;DHT22;11046;49.558;8.674;2024-02-23T10:27:21;10.40;94.10
21770;DHT22;11046;49.558;8.674;2024-02-23T10:30:23;10.50;94.20
21770;DHT22;11046;49.558;8.674;2024-02-23T10:33:23;10.90;94.10
21770;DHT22;11046;49.558;8.674;2024-02-23T10:36:24;11.10;93.60
21770;DHT22;11046;49.558;8.674;2024-02-23T10:39:29;11.20;93.60
21770;DHT22;11046;49.558;8.674;2024-02-23T10:42:33;11.20;93.50
21770;DHT22;11046;49.558;8.674;2024-02-23T10:45:35;11.40;93.30
21770;DHT22;11046;49.558;8.674;2024-02-23T10:48:37;11.60;93.10
21770;DHT22;11046;49.558;8.674;2024-02-23T10:51:39;11.50;92.70
21770;DHT22;11046;49.558;8.674;2024-02-23T10:54:41;11.80;93.10
21770;DHT22;11046;49.558;8.674;2024-02-23T10:57:43;11.90;92.70
21770;DHT22;11046;49.558;8.674;2024-02-23T11:00:44;11.90;92.50
21770;DHT22;11046;49.558;8.674;2024-02-23T11:03:47;11.90;92.60
21770;DHT22;11046;49.558;8.674;2024-02-23T11:06:51;12.10;92.50
21770;DHT22;11046;49.558;8.674;2024-02-23T11:09:52;12.30;92.50
21770;DHT22;11046;49.558;8.674;2024-02-23T11:13:00;12.60;92.50
21770;DHT22;11046;49.558;8.674;2024-02-23T11:16:02;12.70;91.50
21770;DHT22;11046;49.558;8.674;2024-02-23T11:19:04;12.70;91.50
21770;DHT22;11046;49.558;8.674;2024-02-23T11:22:09;12.60;91.40
21770;DHT22;11046;49.558;8.674;2024-02-23T11:25:10;12.40;91.20
21770;DHT22;11046;49.558;8.674;2024-02-23T11:28:21;12.40;91.50
21770;DHT22;11046;49.558;8.674;2024-02-23T11:31:25;12.20;91.00
21770;DHT22;11046;49.558;8.674;2024-02-23T11:34:27;12.30;91.30
21770;DHT22;11046;49.558;8.674;2024-02-23T11:37:28;12.20;91.40
21770;DHT22;11046;49.558;8.674;2024-02-23T11:40:30;12.10;91.10
21770;DHT22;11046;49.558;8.674;2024-02-23T11:43:34;11.90;91.20
21770;DHT22;11046;49.558;8.674;2024-02-23T11:46:35;11.80;91.10
21770;DHT22;11046;49.558;8.674;2024-02-23T11:49:36;11.80;91.30
21770;DHT22;11046;49.558;8.674;2024-02-23T11:52:37;11.80;91.30
21770;DHT22;11046;49.558;8.674;2024-02-23T11:55:38;11.80;91.30
21770;DHT22;11046;49.558;8.674;2024-02-23T11:58:40;12.00;91.50
21770;DHT22;11046;49.558;8.674;2024-02-23T12:01:41;12.00;90.90
21770;DHT22;11046;49.558;8.674;2024-02-23T12:04:42;11.90;90.70
21770;DHT22;11046;49.558;8.674;2024-02-23T12:07:42;11.80;90.80
21770;DHT22;11046;49.558;8.674;2024-02-23T12:10:44;11.80;90.90
21770;DHT22;11046;49.558;8.674;2024-02-23T12:13:45;11.60;91.00
21770;DHT22;11046;49.558;8.674;2024-02-23T12:16:46;11.50;91.00
21770;DHT22;11046;49.558;8.674;2024-02-23T12:19:47;11.40;91.00
21770;DHT22;11046;49.558;8.674;2024-02-23T12:22:49;11.10;91.10
21770;DHT22;11046;49.558;8.674;2024-02-23T12:25:56;11.10;91.60
21770;DHT22;11046;49.558;8.674;2024-02-23T12:29:01;11.20;92.40
21770;DHT22;11046;49.558;8.674;2024-02-23T12:32:06;11.20;92.60
21770;DHT22;11046;49.558;8.674;2024-02-23T12:35:07;11.10;92.40
21770;DHT22;11046;49.558;8.674;2024-02-23T12:38:10;11.00;92.70
21770;DHT22;11046;49.558;8.674;2024-02-23T12:41:11;11.00;92.70
21770;DHT22;11046;49.558;8.674;2024-02-23T12:44:11;11.00;92.50
21770;DHT22;11046;49.558;8.674;2024-02-23T12:47:12;10.80;92.50
21770;DHT22;11046;49.558;8.674;2024-02-23T12:50:13;10.70;92.60
21770;DHT22;11046;49.558;8.674;2024-02-23T12:56:39;10.50;92.80
21770;DHT22;11046;49.558;8.674;2024-02-23T12:59:40;10.20;92.90
21770;DHT22;11046;49.558;8.674;2024-02-23T13:02:41;9.90;93.50
21770;DHT22;11046;49.558;8.674;2024-02-23T13:05:42;9.70;94.20
21770;DHT22;11046;49.558;8.674;2024-02-23T13:08:42;9.70;94.70
21770;DHT22;11046;49.558;8.674;2024-02-23T13:11:43;9.90;95.00
21770;DHT22;11046;49.558;8.674;2024-02-23T13:14:46;10.30;95.00
21770;DHT22;11046;49.558;8.674;2024-02-23T13:17:46;10.50;94.80
21770;DHT22;11046;49.558;8.674;2024-02-23T13:20:47;10.70;94.70
21770;DHT22;11046;49.558;8.674;2024-02-23T13:23:48;10.90;94.50
21770;DHT22;11046;49.558;8.674;2024-02-23T13:26:49;10.90;94.40
21770;DHT22;11046;49.558;8.674;2024-02-23T13:29:49;11.10;94.40
21770;DHT22;11046;49.558;8.674;2024-02-23T13:32:50;11.40;94.30
21770;DHT22;11046;49.558;8.674;2024-02-23T13:35:51;11.30;93.90
21770;DHT22;11046;49.558;8.674;2024-02-23T13:38:52;11.10;93.70
21770;DHT22;11046;49.558;8.674;2024-02-23T13:41:53;10.90;93.80
21770;DHT22;11046;49.558;8.674;2024-02-23T13:44:53;10.70;93.90
21770;DHT22;11046;49.558;8.674;2024-02-23T13:47:59;10.80;93.90
21770;DHT22;11046;49.558;8.674;2024-02-23T13:51:00;10.90;93.80
21770;DHT22;11046;49.558;8.674;2024-02-23T13:54:03;10.90;93.50
21770;DHT22;11046;49.558;8.674;2024-02-23T13:57:04;10.80;93.30
21770;DHT22;11046;49.558;8.674;2024-02-23T14:00:05;10.70;93.10
21770;DHT22;11046;49.558;8.674;2024-02-23T14:03:16;10.50;93.00
21770;DHT22;11046;49.558;8.674;2024-02-23T14:06:21;10.40;92.80
21770;DHT22;11046;49.558;8.674;2024-02-23T14:09:23;10.30;92.80
21770;DHT22;11046;49.558;8.674;2024-02-23T14:12:23;10.30;93.00
21770;DHT22;11046;49.558;8.674;2024-02-23T14:15:24;10.30;92.80
21770;DHT22;11046;49.558;8.674;2024-02-23T14:18:25;10.30;92.80
21770;DHT22;11046;49.558;8.674;2024-02-23T14:21:26;10.40;92.90
21770;DHT22;11046;49.558;8.674;2024-02-23T14:24:27;10.50;92.70
21770;DHT22;11046;49.558;8.674;2024-02-23T14:27:28;10.30;92.80
21770;DHT22;11046;49.558;8.674;2024-02-23T14:30:28;10.00;92.80
21770;DHT22;11046;49.558;8.674;2024-02-23T14:33:29;9.80;93.10
21770;DHT22;11046;49.558;8.674;2024-02-23T14:36:31;9.70;93.60
21770;DHT22;11046;49.558;8.674;2024-02-23T14:39:34;9.50;94.10
21770;DHT22;11046;49.558;8.674;2024-02-23T14:42:34;9.30;94.40
21770;DHT22;11046;49.558;8.674;2024-02-23T14:45:35;9.20;94.60
21770;DHT22;11046;49.558;8.674;2024-02-23T14:48:36;9.20;94.80
21770;DHT22;11046;49.558;8.674;2024-02-23T14:51:37;9.10;95.00
21770;DHT22;11046;49.558;8.674;2024-02-23T14:54:38;9.20;95.10
21770;DHT22;11046;49.558;8.674;2024-02-23T14:57:38;9.20;95.20
21770;DHT22;11046;49.558;8.674;2024-02-23T15:00:39;9.40;95.60
21770;DHT22;11046;49.558;8.674;2024-02-23T15:03:39;9.40;95.30
21770;DHT22;11046;49.558;8.674;2024-02-23T15:06:40;9.30;95.50
21770;DHT22;11046;49.558;8.674;2024-02-23T15:09:41;9.40;95.50
21770;DHT22;11046;49.558;8.674;2024-02-23T15:12:42;9.50;95.40
21770;DHT22;11046;49.558;8.674;2024-02-23T15:15:43;9.40;95.30
21770;DHT22;11046;49.558;8.674;2024-02-23T15:18:44;9.40;95.40
21770;DHT22;11046;49.558;8.674;2024-02-23T15:21:45;9.50;95.50
21770;DHT22;11046;49.558;8.674;2024-02-23T15:24:45;9.40;95.60
21770;DHT22;11046;49.558;8.674;2024-02-23T15:27:49;9.50;95.70
21770;DHT22;11046;49.558;8.674;2024-02-23T15:30:52;9.60;95.70
21770;DHT22;11046;49.558;8.674;2024-02-23T15:33:53;9.70;95.70
21770;DHT22;11046;49.558;8.674;2024-02-23T15:36:56;9.70;95.70
21770;DHT22;11046;49.558;8.674;2024-02-23T15:39:57;9.70;95.70
21770;DHT22;11046;49.558;8.674;2024-02-23T15:42:57;9.60;95.70
21770;DHT22;11046;49.558;8.674;2024-02-23T15:45:58;9.50;95.80
21770;DHT22;11046;49.558;8.674;2024-02-23T15:48:59;9.50;95.80
21770;DHT22;11046;49.558;8.674;2024-02-23T15:51:59;9.40;95.80
21770;DHT22;11046;49.558;8.674;2024-02-23T15:55:00;9.50;95.80
21770;DHT22;11046;49.558;8.674;2024-02-23T15:58:01;9.60;95.80
21770;DHT22;11046;49.558;8.674;2024-02-23T16:01:03;9.70;95.70
21770;DHT22;11046;49.558;8.674;2024-02-23T16:04:06;9.80;95.50
21770;DHT22;11046;49.558;8.674;2024-02-23T16:07:10;9.80;95.50
21770;DHT22;11046;49.558;8.674;2024-02-23T16:10:11;9.80;95.60
21770;DHT22;11046;49.558;8.674;2024-02-23T16:13:13;9.80;95.50
21770;DHT22;11046;49.558;8.674;2024-02-23T16:16:14;9.70;95.50
21770;DHT22;11046;49.558;8.674;2024-02-23T16:19:15;9.70;95.40
21770;DHT22;11046;49.558;8.674;2024-02-23T16:22:18;9.70;95.30
21770;DHT22;11046;49.558;8.674;2024-02-23T16:25:19;9.60;95.10
21770;DHT22;11046;49.558;8.674;2024-02-23T16:28:20;9.60;95.00
21770;DHT22;11046;49.558;8.674;2024-02-23T16:31:21;9.60;94.90
21770;DHT22;11046;49.558;8.674;2024-02-23T16:34:22;9.40;94.70
21770;DHT22;11046;49.558;8.674;2024-02-23T16:37:23;9.30;94.80
21770;DHT22;11046;49.558;8.674;2024-02-23T16:40:25;9.10;94.80
21770;DHT22;11046;49.558;8.674;2024-02-23T16:43:28;9.00;94.70
21770;DHT22;11046;49.558;8.674;2024-02-23T16:46:29;8.90;94.80
21770;DHT22;11046;49.558;8.674;2024-02-23T16:49:30;8.80;94.80
21770;DHT22;11046;49.558;8.674;2024-02-23T16:52:30;8.80;94.90
21770;DHT22;11046;49.558;8.674;2024-02-23T16:55:31;8.70;94.90
21770;DHT22;11046;49.558;8.674;2024-02-23T16:58:32;8.70;94.90
21770;DHT22;11046;49.558;8.674;2024-02-23T17:01:36;8.70;94.90
21770;DHT22;11046;49.558;8.674;2024-02-23T17:04:36;8.60;94.80
21770;DHT22;11046;49.558;8.674;2024-02-23T17:07:37;8.50;94.90
21770;DHT22;11046;49.558;8.674;2024-02-23T17:10:38;8.50;94.90
21770;DHT22;11046;49.558;8.674;2024-02-23T17:13:38;8.40;95.00
21770;DHT22;11046;49.558;8.674;2024-02-23T17:16:39;8.30;95.00
21770;DHT22;11046;49.558;8.674;2024-02-23T17:19:40;8.30;95.00
21770;DHT22;11046;49.558;8.674;2024-02-23T17:22:42;8.30;95.10
21770;DHT22;11046;49.558;8.674;2024-02-23T17:25:43;8.30;95.10
21770;DHT22;11046;49.558;8.674;2024-02-23T17:28:46;8.30;95.10
21770;DHT22;11046;49.558;8.674;2024-02-23T17:31:47;8.40;95.00
21770;DHT22;11046;49.558;8.674;2024-02-23T17:34:47;8.30;94.90
21770;DHT22;11046;49.558;8.674;2024-02-23T17:37:49;8.30;95.00
21770;DHT22;11046;49.558;8.674;2024-02-23T17:40:50;8.30;95.00
21770;DHT22;11046;49.558;8.674;2024-02-23T17:43:53;8.30;94.90
21770;DHT22;11046;49.558;8.674;2024-02-23T17:46:56;8.30;95.00
21770;DHT22;11046;49.558;8.674;2024-02-23T17:49:59;8.20;95.10
21770;DHT22;11046;49.558;8.674;2024-02-23T17:53:04;8.20;95.10
21770;DHT22;11046;49.558;8.674;2024-02-23T17:56:05;8.10;95.10
21770;DHT22;11046;49.558;8.674;2024-02-23T17:59:06;8.10;95.20
21770;DHT22;11046;49.558;8.674;2024-02-23T18:02:07;8.00;95.20
21770;DHT22;11046;49.558;8.674;2024-02-23T18:05:08;8.00;95.20
21770;DHT22;11046;49.558;8.674;2024-02-23T18:08:08;8.00;95.20
21770;DHT22;11046;49.558;8.674;2024-02-23T18:11:09;8.00;95.30
21770;DHT22;11046;49.558;8.674;2024-02-23T18:14:10;7.90;95.30
21770;DHT22;11046;49.558;8.674;2024-02-23T18:17:13;7.90;95.40
21770;DHT22;11046;49.558;8.674;2024-02-23T18:20:13;7.90;95.40
21770;DHT22;11046;49.558;8.674;2024-02-23T18:23:14;7.80;95.40
21770;DHT22;11046;49.558;8.674;2024-02-23T18:26:15;7.80;95.50
21770;DHT22;11046;49.558;8.674;2024-02-23T18:29:17;7.80;95.50
21770;DHT22;11046;49.558;8.674;2024-02-23T18:32:20;7.70;95.50
21770;DHT22;11046;49.558;8.674;2024-02-23T18:35:22;7.70;95.60
21770;DHT22;11046;49.558;8.674;2024-02-23T18:38:23;7.70;95.60
21770;DHT22;11046;49.558;8.674;2024-02-23T18:41:24;7.70;95.70
21770;DHT22;11046;49.558;8.674;2024-02-23T18:44:25;7.60;95.70
21770;DHT22;11046;49.558;8.674;2024-02-23T18:47:26;7.60;95.70
21770;DHT22;11046;49.558;8.674;2024-02-23T18:50:26;7.70;95.70
21770;DHT22;11046;49.558;8.674;2024-02-23T18:53:28;7.70;95.70
21770;DHT22;11046;49.558;8.674;2024-02-23T18:56:29;7.60;95.70
21770;DHT22;11046;49.558;8.674;2024-02-23T18:59:30;7.60;95.70
21770;DHT22;11046;49.558;8.674;2024-02-23T19:02:32;7.60;95.70
21770;DHT22;11046;49.558;8.674;2024-02-23T19:05:36;7.50;95.70
21770;DHT22;11046;49.558;8.674;2024-02-23T19:08:37;7.50;95.80
21770;DHT22;11046;49.558;8.674;2024-02-23T19:11:38;7.40;95.80
21770;DHT22;11046;49.558;8.674;2024-02-23T19:14:39;7.40;95.90
21770;DHT22;11046;49.558;8.674;2024-02-23T19:17:42;7.40;95.90
21770;DHT22;11046;49.558;8.674;2024-02-23T19:20:42;7.30;95.90
21770;DHT22;11046;49.558;8.674;2024-02-23T19:23:43;7.30;96.00
21770;DHT22;11046;49.558;8.674;2024-02-23T19:26:45;7.20;96.00
21770;DHT22;11046;49.558;8.674;2024-02-23T19:29:47;7.20;96.00